Decoded Metar for OIKQ (GHESHM I. in IRAN) (IATA:N/A) | Meteo·Mobile Aviation Weather
aviador You're here:

OIKQ Decoded Metar

GHESHM I. in IRAN
Report Time2018-11-18 20:00:00
UTC Time2018-11-18 20:18:05
Flight Rules ifr IFR
Wind240° at 14 kt
W.Decomp.*RWY 23: 13.8 kt HW 2.4 kt RCW
W.Rank240° ranks 4
Current wind is above 240° avg. (13.3)
Visibility4000 m
Phenomena:Haze
Clouds:N/A
Expected CloudBase > 1,600 ft AGL from Temp-Dew spread
CeilingNone
Temp25°C (ISA +10)
Dew Point21°C (79% RH)
AAT24.2°C
QNH1013 hPa
Density Alt1,532 ft
Elevation39 ft
Report Wrong Elevation
Raw Report
METAR OIKQ 182000Z 24014KT 4000 HZ NSC 25/21 Q1013=

Extra information for OIKQ:More info

Metar Taf Metar & Taf Last 4 Metars F.Rules Stats Wind Profile Meteogram Temp Stats Airport Information Weather charts Add Link Nearby VenuesMetar ALERT Operation Metar Decoded Social comments